الصفحة الرئيسية
METAR-TAF:

METAR-TAF

مطار :

مطار انديرا غاندي الدولي

نيودلهي, الهند

دائرة عرض: 28-34N, خط طول: 077-07E, ارتفاع: 220 متر

مراقبة الطقس الحالي

تاريخ ووقت الإصدار 39 دقيقة قبل الساعة 22:30UTC
رياح هادئة
درجة الحرارة 22°درجة مئوية
الرطوبة 53%
ضغط 1014 hPa
الرؤية: 2500 متر
غيوم متفرقة على ارتفاع 10000 قدم
العجاج

METAR: VIDP 202230Z 00000KT 2500 HZ SCT100 22/12 Q1014 NOSIG

زمن: 04:39 (23:09 UTC)

توقعات

تاريخ ووقت الإصدار 3ساعات و 9 دقيقة قبل الساعة 20:00UTC
التوقعات صالحة من20 الساعة 21 UTC إلى 21 الساعة 06 UTC
ريح 6 عقدة من الشمال
الرؤية: 2500 متر
غيوم متفرقة على ارتفاع 10000 قدم
العجاج
أصبح
من 21 الساعة 00 UTC إلى 21 الساعة 02 UTC
الرؤية: 1500 متر
غشاء

TAF: VIDP 202000Z 2021/2106 36006KT 2500 HZ SCT100 BECMG 2100/2102 1500 BR

أرصاد الطقس والتوقعات من أكثر من 4000 مطار (تقارير الطقس للمطار METAR والتنبؤ بالطقس بالمطارTAF).

المحطات المتاحة هي النقط الصفراء والحمراء على الخريطة.

حرك المؤشر فوق النقطة لمعرفة اسم المحطة.

ثم انقر لمعرفة أرصاد وتوقعات الطقس.

لتغيير الخارطة: اضغط على الأزرار الخضراء مع رمز الصليب الأسود للتكبير. على الزر الأخضر مع شرطة للتصغير، أو على الأسهم الخضراء للخرائط المجاورة.


METAR-TAF: